Sunday, April 22, 2018, 5:51 PM EDT
Back to Local

KSNC, Chester, Chester Airport

Location: Chester, CT, United States Lat: 41.384
Local Time: 5:51 PM EDT (21:51 GMT) Lon: -72.506
Time Zone: US/Eastern Elev: 416 ft

Show me the last for .
Show Decoded

2018-04-22 17:35 METAR KSNC 222135Z AUTO 30005G13KT 10SM CLR 18/M13 A3030 RMK AO2 =
2018-04-22 17:15 METAR KSNC 222115Z AUTO 32012KT 10SM CLR 18/M14 A3031 RMK AO2 =
2018-04-22 16:35 METAR KSNC 222035Z AUTO 10SM 18/M13 A3031 RMK AO2 =
2018-04-22 15:55 METAR KSNC 221955Z AUTO VRB06G18KT 10SM CLR 18/M12 A3031 RMK AO2 =
2018-04-22 15:35 METAR KSNC 221935Z AUTO VRB05G14KT 10SM CLR 17/M11 A3031 RMK AO2 =
2018-04-22 15:15 METAR KSNC 221915Z AUTO 31007KT 10SM CLR 17/M12 A3032 RMK AO2 =
2018-04-22 14:55 METAR KSNC 221855Z AUTO VRB05G13KT 10SM CLR 17/M11 A3032 RMK AO2 =
2018-04-22 14:35 METAR KSNC 221835Z AUTO 01011G17KT 10SM CLR 17/M11 A3033 RMK AO2 =
2018-04-22 14:15 METAR KSNC 221815Z AUTO 32010G17KT 10SM CLR 17/M12 A3033 RMK AO2 =
2018-04-22 13:55 METAR KSNC 221755Z AUTO 02006G19KT 10SM CLR 17/M12 A3034 RMK AO2 =
2018-04-22 13:35 METAR KSNC 221735Z AUTO 32011KT 10SM CLR 16/M11 A3034 RMK AO2 =
2018-04-22 13:15 METAR KSNC 221715Z AUTO VRB05KT 10SM CLR 15/M11 A3034 RMK AO2 =
2018-04-22 12:55 METAR KSNC 221655Z AUTO 33009G17KT 300V360 10SM CLR 16/M11 A3035 RMK AO2 =
2018-04-22 12:35 METAR KSNC 221635Z AUTO VRB05KT 10SM CLR 15/M11 A3036 RMK AO2 =
2018-04-22 12:15 METAR KSNC 221615Z AUTO 33007G16KT 280V360 10SM CLR 15/M11 A3036 RMK AO2 =
2018-04-22 11:55 METAR KSNC 221555Z AUTO 33008KT 10SM CLR 15/M11 A3037 RMK AO2 =
2018-04-22 11:35 METAR KSNC 221535Z AUTO VRB06G13KT 10SM CLR 14/M11 A3037 RMK AO2 =
2018-04-22 11:15 METAR KSNC 221515Z AUTO 33010G17KT 10SM CLR 14/M13 A3038 RMK AO2 =
2018-04-22 10:55 METAR KSNC 221455Z AUTO 33009G19KT 290V020 10SM CLR 14/M12 A3038 RMK AO2 =
2018-04-22 10:35 METAR KSNC 221435Z AUTO 35008G13KT 10SM CLR 13/M11 A3038 RMK AO2 =
2018-04-22 10:15 METAR KSNC 221415Z AUTO 31011G17KT 10SM CLR 13/M11 A3038 RMK AO2 =
2018-04-22 09:55 METAR KSNC 221355Z AUTO 34008KT 10SM CLR 13/M10 A3038 RMK AO2 =
2018-04-22 09:35 METAR KSNC 221335Z AUTO VRB06G11KT 10SM CLR 13/M09 A3038 RMK AO2 =
2018-04-22 09:15 METAR KSNC 221315Z AUTO 01006KT 10SM CLR 13/M09 A3038 RMK AO2 =
2018-04-22 08:55 METAR KSNC 221255Z AUTO VRB03KT 10SM CLR 12/M08 A3038 RMK AO2 =
2018-04-22 08:35 METAR KSNC 221235Z AUTO 33006KT 10SM CLR 11/M08 A3038 RMK AO2 =
2018-04-22 08:15 METAR KSNC 221215Z AUTO 35005KT 10SM CLR 10/M07 A3038 RMK AO2 =
2018-04-22 07:55 METAR KSNC 221155Z AUTO 33004KT 10SM CLR 09/M07 A3038 RMK AO2 =
2018-04-22 07:35 METAR KSNC 221135Z AUTO 33003KT 10SM CLR 08/M07 A3038 RMK AO2 =
2018-04-22 07:15 METAR KSNC 221115Z AUTO 34003KT 10SM CLR 07/M07 A3037 RMK AO2 =
2018-04-22 06:55 METAR KSNC 221055Z AUTO 00000KT 10SM CLR 06/M07 A3037 RMK AO2 =
2018-04-22 06:35 METAR KSNC 221035Z AUTO 00000KT 10SM CLR 05/M07 A3036 RMK AO2 =
2018-04-22 06:15 METAR KSNC 221015Z AUTO 31003KT 10SM CLR 04/M07 A3036 RMK AO2 =
2018-04-22 05:55 METAR KSNC 220955Z AUTO 31003KT 10SM CLR 04/M07 A3035 RMK AO2 =
2018-04-22 05:35 METAR KSNC 220935Z AUTO 00000KT 10SM CLR 04/M07 A3035 RMK AO2 =
2018-04-22 05:15 METAR KSNC 220915Z AUTO 00000KT 10SM CLR 05/M07 A3035 RMK AO2 =
2018-04-22 04:55 METAR KSNC 220855Z AUTO 31005KT 10SM CLR 05/M07 A3034 RMK AO2 =
2018-04-22 04:35 METAR KSNC 220835Z AUTO 33005KT 10SM CLR 05/M07 A3034 RMK AO2 =
2018-04-22 04:15 METAR KSNC 220815Z AUTO 32006KT 10SM CLR 06/M08 A3034 RMK AO2 =
2018-04-22 03:55 METAR KSNC 220755Z AUTO 32006KT 10SM CLR 06/M08 A3034 RMK AO2 =
2018-04-22 03:35 METAR KSNC 220735Z AUTO 33005KT 10SM CLR 06/M08 A3034 RMK AO2 =
2018-04-22 03:15 METAR KSNC 220715Z AUTO 33005KT 10SM CLR 06/M08 A3034 RMK AO2 =
2018-04-22 02:55 METAR KSNC 220655Z AUTO 32006KT 10SM CLR 06/M08 A3033 RMK AO2 =
2018-04-22 02:35 METAR KSNC 220635Z AUTO 33005KT 10SM CLR 06/M08 A3033 RMK AO2 =
2018-04-22 02:15 METAR KSNC 220615Z AUTO 33006KT 10SM CLR 07/M08 A3033 RMK AO2 =
2018-04-22 01:55 METAR KSNC 220555Z AUTO 32006KT 10SM CLR 07/M08 A3033 RMK AO2 =
2018-04-22 01:35 METAR KSNC 220535Z AUTO 32005KT 10SM CLR 07/M08 A3033 RMK AO2 =
2018-04-22 01:15 METAR KSNC 220515Z AUTO 32006KT 10SM CLR 08/M08 A3033 RMK AO2 =
2018-04-22 00:55 METAR KSNC 220455Z AUTO 32007KT 10SM CLR 08/M08 A3033 RMK AO2 =
2018-04-22 00:35 METAR KSNC 220435Z AUTO 32006KT 10SM CLR 08/M08 A3033 RMK AO2 =
2018-04-22 00:15 METAR KSNC 220415Z AUTO 32006KT 10SM CLR 09/M08 A3032 RMK AO2 =
2018-04-21 23:55 METAR KSNC 220355Z AUTO 32007KT 10SM CLR 09/M08 A3032 RMK AO2 =
2018-04-21 23:35 METAR KSNC 220335Z AUTO 32008KT 10SM CLR 09/M08 A3032 RMK AO2 =
2018-04-21 23:15 METAR KSNC 220315Z AUTO 33007KT 10SM CLR 09/M08 A3032 RMK AO2 =
2018-04-21 22:55 METAR KSNC 220255Z AUTO 32007KT 10SM CLR 09/M08 A3031 RMK AO2 =
2018-04-21 22:35 METAR KSNC 220235Z AUTO 32005KT 10SM CLR 10/M08 A3031 RMK AO2 =
2018-04-21 22:15 METAR KSNC 220215Z AUTO 31006KT 10SM CLR 10/M08 A3030 RMK AO2 =
2018-04-21 21:55 METAR KSNC 220155Z AUTO 32006KT 10SM CLR 10/M07 A3030 RMK AO2 =
2018-04-21 21:35 METAR KSNC 220135Z AUTO 32006KT 10SM CLR 10/M08 A3030 RMK AO2 =
2018-04-21 21:15 METAR KSNC 220115Z AUTO 32006KT 10SM CLR 11/M08 A3030 RMK AO2 =
2018-04-21 20:55 METAR KSNC 220055Z AUTO 32006KT 10SM CLR 11/M08 A3029 RMK AO2 =
2018-04-21 20:35 METAR KSNC 220035Z AUTO 32007KT 10SM CLR 11/M08 A3028 RMK AO2 =
2018-04-21 20:15 METAR KSNC 220015Z AUTO 33009KT 10SM CLR 12/M08 A3028 RMK AO2 =
2018-04-21 19:55 METAR KSNC 212355Z AUTO 31007G12KT 10SM CLR 12/M08 A3027 RMK AO2 =
2018-04-21 19:35 METAR KSNC 212335Z AUTO 32009G17KT 10SM CLR 13/M09 A3026 RMK AO2 =
2018-04-21 19:15 METAR KSNC 212315Z AUTO 32009G15KT 10SM CLR 14/M09 A3025 RMK AO2 =
2018-04-21 18:55 METAR KSNC 212255Z AUTO 32010KT 10SM CLR 14/M09 A3023 RMK AO2 =
2018-04-21 18:35 METAR KSNC 212235Z AUTO 32009G16KT 10SM 15/M09 A3023 RMK AO2 =
2018-04-21 18:15 METAR KSNC 212215Z AUTO 30010G21KT 260V320 10SM CLR 15/M10 A3022 RMK AO2 =
2018-04-21 17:55 METAR KSNC 212155Z AUTO 30011G17KT 10SM CLR 16/M09 A3022 RMK AO2 =

Support USWX by starting your Amazon purchase here.